Time;durP1;ratioP1;P1;durP2;ratioP2;P2;SDS_P1;SDS_P2;PMS_P1;PMS_P2;Temp;Humidity;BMP_temperature;BMP_pressure;BME280_temperature;BME280_humidity;BME280_pressure;Samples;Min_cycle;Max_cycle;Signal;HPM_P1;HPM_P2
2022/03/15 00:02:12;;;;;;;;;9.33;8.67;;;;;14.93;100.00;102124.56;6370729;22;46957;-96
2022/03/15 00:04:40;;;;;;;;;10.67;9.33;;;;;14.95;100.00;102120.25;6368948;22;45978;-96
2022/03/15 00:07:10;;;;;;;;;10.00;9.67;;;;;14.96;100.00;102112.41;6368744;22;45388;-96
2022/03/15 00:09:37;;;;;;;;;12.00;10.67;;;;;14.99;100.00;102119.56;6371235;22;45378;-96
2022/03/15 00:12:05;;;;;;;;;8.00;7.00;;;;;14.97;100.00;102114.19;6383551;22;47045;-96
2022/03/15 00:14:32;;;;;;;;;10.00;8.67;;;;;14.90;100.00;102093.56;6386751;22;44831;-96
2022/03/15 00:17:00;;;;;;;;;10.33;8.00;;;;;14.88;100.00;102097.91;6388401;22;44683;-96
2022/03/15 00:19:26;;;;;;;;;10.33;8.33;;;;;14.83;100.00;102084.41;6390970;22;45504;-96
2022/03/15 00:21:54;;;;;;;;;11.33;10.33;;;;;14.94;100.00;102102.59;6364422;22;47251;-96
2022/03/15 00:24:22;;;;;;;;;14.67;10.33;;;;;14.87;100.00;102103.13;6388901;22;45279;-96
2022/03/15 00:26:48;;;;;;;;;9.00;8.00;;;;;14.89;100.00;102102.34;6386777;22;45715;-94
2022/03/15 00:29:19;;;;;;;;;12.67;10.33;;;;;14.84;100.00;102096.78;6415505;22;45480;-94
2022/03/15 00:31:45;;;;;;;;;13.67;10.67;;;;;14.89;100.00;102105.00;6412732;22;47026;-94
2022/03/15 00:34:11;;;;;;;;;15.67;10.67;;;;;14.89;100.00;102101.44;6391663;22;45109;-95
2022/03/15 00:36:37;;;;;;;;;12.33;12.33;;;;;14.85;100.00;102102.97;6393806;22;44685;-96
2022/03/15 00:39:06;;;;;;;;;15.33;10.00;;;;;14.81;100.00;102088.72;6393648;22;44827;-94
2022/03/15 00:41:32;;;;;;;;;12.67;11.00;;;;;14.79;100.00;102085.06;6384447;22;47103;-94
2022/03/15 00:44:00;;;;;;;;;10.00;10.00;;;;;14.87;100.00;102106.63;6385396;22;45453;-93
2022/03/15 00:46:26;;;;;;;;;15.33;10.00;;;;;14.81;100.00;102103.69;6386268;22;45378;-94
2022/03/15 00:48:54;;;;;;;;;12.67;10.33;;;;;14.81;100.00;102095.75;6378090;22;45268;-96
2022/03/15 00:51:20;;;;;;;;;10.00;10.00;;;;;14.72;100.00;102086.53;6367372;22;47293;-96
2022/03/15 00:53:58;;;;;;;;;;;;;;;;;;;;;
2022/03/15 00:56:26;;;;;;;;;12.00;9.00;;;;;14.80;100.00;102102.75;6369101;22;68071;-95
2022/03/15 00:58:52;;;;;;;;;12.00;10.00;;;;;14.83;100.00;102100.28;6367386;22;45544;-96
2022/03/15 01:01:18;;;;;;;;;11.67;11.67;;;;;14.77;100.00;102072.63;6367595;22;47816;-96
2022/03/15 01:03:43;;;;;;;;;11.33;10.33;;;;;14.80;100.00;102086.00;6367758;22;45497;-96
2022/03/15 01:06:09;;;;;;;;;8.33;8.33;;;;;14.80;100.00;102086.00;6367082;22;45456;-96
2022/03/15 01:08:35;;;;;;;;;8.67;8.67;;;;;14.69;100.00;102070.50;6367405;22;45456;-96
2022/03/15 01:11:02;;;;;;;;;13.67;10.33;;;;;14.77;100.00;102083.19;6366692;22;47032;-96
2022/03/15 01:13:29;;;;;;;;;9.67;7.00;;;;;14.74;100.00;102071.63;6366767;22;45633;-96
2022/03/15 01:15:56;;;;;;;;;13.67;10.67;;;;;14.70;100.00;102061.75;6369202;22;45329;-96
2022/03/15 01:18:22;;;;;;;;;15.00;13.00;;;;;14.66;100.00;102054.53;6367379;22;45371;-96
2022/03/15 01:20:51;;;;;;;;;12.67;10.67;;;;;14.64;100.00;102051.78;6366985;22;46690;-96
2022/03/15 01:23:17;;;;;;;;;10.33;9.67;;;;;14.70;100.00;102056.47;6366979;22;45349;-95
2022/03/15 01:25:42;;;;;;;;;11.00;10.00;;;;;14.62;100.00;102034.94;6367247;22;45411;-96
2022/03/15 01:28:08;;;;;;;;;12.67;10.33;;;;;14.64;100.00;102043.84;6367363;22;45363;-96
2022/03/15 01:30:34;;;;;;;;;16.00;13.00;;;;;14.64;100.00;102046.50;6367020;22;47905;-96
2022/03/15 01:32:59;;;;;;;;;10.00;9.00;;;;;14.74;100.00;102062.84;6368278;22;45617;-96
2022/03/15 01:35:25;;;;;;;;;14.33;12.33;;;;;14.70;100.00;102048.53;6367324;22;45345;-96
2022/03/15 01:37:50;;;;;;;;;11.67;10.33;;;;;14.66;100.00;102027.19;6367763;22;45226;-96
2022/03/15 01:40:16;;;;;;;;;9.33;9.33;;;;;14.63;100.00;102020.94;6366810;22;46866;-96
2022/03/15 01:42:41;;;;;;;;;9.67;9.67;;;;;14.66;100.00;102021.91;6367640;22;45638;-96
2022/03/15 01:45:08;;;;;;;;;12.33;10.00;;;;;14.75;100.00;102027.63;6368219;22;45318;-94
2022/03/15 01:47:33;;;;;;;;;9.67;6.33;;;;;14.61;100.00;102009.34;6367840;22;45594;-95
2022/03/15 01:49:59;;;;;;;;;9.67;9.67;;;;;14.69;100.00;102016.78;6364819;22;47027;-95
2022/03/15 01:52:25;;;;;;;;;8.67;8.00;;;;;14.67;100.00;102007.84;6367220;22;45984;-95
2022/03/15 01:54:53;;;;;;;;;10.33;9.00;;;;;14.79;100.00;102020.75;6367559;22;45428;-94
2022/03/15 01:57:18;;;;;;;;;9.00;8.00;;;;;14.70;100.00;102003.63;6367419;22;45250;-95
2022/03/15 01:59:44;;;;;;;;;11.00;8.00;;;;;14.73;100.00;102001.13;6366499;22;47046;-95
2022/03/15 02:02:10;;;;;;;;;9.67;9.67;;;;;14.74;100.00;101995.00;6364844;22;45297;-95
2022/03/15 02:04:38;;;;;;;;;10.67;8.00;;;;;14.72;100.00;101985.19;6367442;22;45225;-95
2022/03/15 02:07:09;;;;;;;;;13.00;10.33;;;;;14.87;100.00;101987.69;6366511;22;45374;-95
2022/03/15 02:09:36;;;;;;;;;13.33;10.00;;;;;14.79;100.00;101973.19;6366731;22;47117;-95
2022/03/15 02:12:02;;;;;;;;;10.33;9.33;;;;;14.81;100.00;101984.72;6366212;22;45261;-95
2022/03/15 02:14:28;;;;;;;;;10.00;10.00;;;;;14.89;100.00;101983.41;6367297;22;45484;-95
2022/03/15 02:16:54;;;;;;;;;9.67;9.00;;;;;14.90;100.00;101982.53;6366323;22;45483;-95
2022/03/15 02:19:20;;;;;;;;;11.33;9.33;;;;;14.95;100.00;101988.97;6367366;22;47096;-95
2022/03/15 02:21:46;;;;;;;;;8.33;7.67;;;;;14.89;100.00;101980.75;6367061;22;45856;-94
2022/03/15 02:24:12;;;;;;;;;8.33;6.00;;;;;14.85;100.00;101974.38;6367449;22;45396;-96
2022/03/15 02:26:40;;;;;;;;;10.67;10.00;;;;;14.85;100.00;101965.53;6367201;22;46645;-95
2022/03/15 02:29:06;;;;;;;;;8.33;5.67;;;;;15.04;100.00;101975.28;6367086;22;45382;-96
2022/03/15 02:31:32;;;;;;;;;7.00;5.67;;;;;14.90;100.00;101952.56;6366388;22;45300;-95
2022/03/15 02:33:57;;;;;;;;;7.00;6.67;;;;;14.90;100.00;101942.91;6367152;22;45822;-95
2022/03/15 02:36:23;;;;;;;;;7.67;6.67;;;;;14.97;100.00;101952.91;6366519;22;45621;-95
2022/03/15 02:38:48;;;;;;;;;7.00;7.00;;;;;14.95;100.00;101949.31;6366496;22;47892;-95
2022/03/15 02:41:14;;;;;;;;;8.67;8.00;;;;;14.95;100.00;101938.72;6366973;22;45350;-95
2022/03/15 02:43:42;;;;;;;;;8.00;8.00;;;;;15.02;100.00;101941.66;6340470;22;45388;-95
2022/03/15 02:46:08;;;;;;;;;9.00;9.00;;;;;15.03;100.00;101949.66;6366481;22;45462;-94
2022/03/15 02:48:34;;;;;;;;;6.67;5.00;;;;;15.01;100.00;101939.84;6367002;22;47131;-95
2022/03/15 02:51:05;;;;;;;;;7.00;7.00;;;;;14.99;100.00;101928.31;6365302;22;45212;-95
2022/03/15 02:53:30;;;;;;;;;9.67;9.00;;;;;15.01;100.00;101926.63;6367201;22;45655;-96
2022/03/15 02:55:56;;;;;;;;;9.00;7.67;;;;;15.11;100.00;101933.25;6393888;22;45497;-95
2022/03/15 02:58:21;;;;;;;;;10.67;9.67;;;;;15.04;100.00;101919.75;6366414;22;48353;-95
2022/03/15 03:00:47;;;;;;;;;7.33;7.33;;;;;15.10;100.00;101920.88;6366057;22;45461;-94
2022/03/15 03:03:15;;;;;;;;;8.00;6.33;;;;;15.16;100.00;101921.13;6367054;22;45374;-95
2022/03/15 03:05:41;;;;;;;;;8.67;6.33;;;;;15.20;100.00;101925.75;6366641;22;45452;-96
2022/03/15 03:08:07;;;;;;;;;5.00;3.67;;;;;15.18;100.00;101917.72;6366489;22;47348;-95
2022/03/15 03:10:33;;;;;;;;;10.00;10.00;;;;;15.23;100.00;101917.03;6368349;22;45393;-95
2022/03/15 03:12:59;;;;;;;;;9.00;7.33;;;;;15.17;100.00;101902.72;6367454;22;45409;-96
2022/03/15 03:15:26;;;;;;;;;8.00;8.00;;;;;15.18;100.00;101914.16;6366487;22;45431;-96
2022/03/15 03:17:52;;;;;;;;;9.67;9.67;;;;;15.19;100.00;101922.19;6366728;22;48083;-96
2022/03/15 03:20:19;;;;;;;;;7.00;7.00;;;;;15.21;100.00;101911.66;6366583;22;45410;-96
2022/03/15 03:22:48;;;;;;;;;11.67;9.33;;;;;15.26;100.00;101912.78;6367421;22;45273;-95
2022/03/15 03:25:15;;;;;;;;;10.00;9.00;;;;;15.11;100.00;101905.06;6366600;22;45572;-96
2022/03/15 03:27:41;;;;;;;;;14.00;8.33;;;;;15.05;100.00;101908.31;6367669;22;47233;-95
2022/03/15 03:30:07;;;;;;;;;9.33;8.67;;;;;15.05;100.00;101903.03;6368129;22;45649;-95
2022/03/15 03:32:33;;;;;;;;;14.00;10.00;;;;;15.07;100.00;101906.69;6368250;22;45439;-95
2022/03/15 03:34:58;;;;;;;;;10.00;10.00;;;;;15.04;100.00;101911.81;6373170;22;45543;-95
2022/03/15 03:37:25;;;;;;;;;11.67;9.00;;;;;15.09;100.00;101909.38;6393834;22;47243;-96
2022/03/15 03:39:54;;;;;;;;;9.00;9.00;;;;;15.00;100.00;101899.28;6393824;22;44744;-96
2022/03/15 03:42:19;;;;;;;;;11.00;10.33;;;;;15.02;100.00;101907.31;6394165;22;44744;-96
2022/03/15 03:44:45;;;;;;;;;10.33;9.67;;;;;14.95;100.00;101907.00;6386315;22;44733;-96
2022/03/15 03:47:11;;;;;;;;;9.67;8.33;;;;;14.91;100.00;101888.28;6368290;22;47010;-96
2022/03/15 03:49:38;;;;;;;;;11.33;9.33;;;;;14.95;100.00;101904.38;6368036;22;45491;-96
2022/03/15 03:52:05;;;;;;;;;9.00;8.67;;;;;14.96;100.00;101903.53;6368449;22;45315;-96
2022/03/15 03:54:30;;;;;;;;;9.67;8.00;;;;;14.94;100.00;101893.72;6368318;22;45231;-96
2022/03/15 03:56:56;;;;;;;;;8.00;8.00;;;;;14.97;100.00;101892.09;6367657;22;45261;-96
2022/03/15 03:59:21;;;;;;;;;11.67;9.00;;;;;14.94;100.00;101888.44;6367677;22;45292;-96
2022/03/15 04:01:47;;;;;;;;;8.00;8.00;;;;;14.94;100.00;101891.09;6368082;22;45716;-96
2022/03/15 04:04:12;;;;;;;;;11.00;10.00;;;;;14.91;100.00;101878.63;6367895;22;45554;-96
2022/03/15 04:06:41;;;;;;;;;4.00;4.00;;;;;15.00;100.00;101894.00;6367809;22;47084;-96
2022/03/15 04:09:11;;;;;;;;;8.33;7.00;;;;;14.96;100.00;101878.84;6368208;22;45467;-96
2022/03/15 04:11:40;;;;;;;;;10.33;7.33;;;;;14.87;100.00;101871.38;6368291;22;45330;-96
2022/03/15 04:14:07;;;;;;;;;10.00;9.00;;;;;14.85;100.00;101867.72;6369131;22;45506;-96
2022/03/15 04:16:33;;;;;;;;;11.33;9.67;;;;;14.87;100.00;101854.63;6370286;22;47064;-96
2022/03/15 04:18:58;;;;;;;;;10.33;9.33;;;;;14.94;100.00;101880.50;6370438;22;45832;-96
2022/03/15 04:21:28;;;;;;;;;10.67;9.67;;;;;14.90;100.00;101867.97;6374681;22;45378;-96
2022/03/15 04:23:55;;;;;;;;;9.33;8.00;;;;;14.95;100.00;101867.34;6373508;22;45507;-96
2022/03/15 04:26:21;;;;;;;;;10.00;9.67;;;;;14.94;100.00;101870.84;6371607;22;47102;-96
2022/03/15 04:28:49;;;;;;;;;10.67;10.33;;;;;14.99;100.00;101860.47;6369594;22;44979;-96
2022/03/15 04:31:14;;;;;;;;;10.00;9.00;;;;;14.86;100.00;101853.72;6369506;22;45438;-96
2022/03/15 04:33:40;;;;;;;;;9.00;8.67;;;;;14.83;100.00;101849.16;6367668;22;44787;-96
2022/03/15 04:36:06;;;;;;;;;13.00;10.00;;;;;14.88;100.00;101845.84;6368031;22;47082;-96
2022/03/15 04:38:32;;;;;;;;;9.67;9.67;;;;;14.80;100.00;101842.81;6368186;22;45684;-94
2022/03/15 04:40:59;;;;;;;;;10.33;8.67;;;;;14.83;100.00;101842.97;6367967;22;45325;-96
2022/03/15 04:43:24;;;;;;;;;12.00;10.33;;;;;14.80;100.00;101835.81;6366396;22;45403;-96
2022/03/15 04:45:50;;;;;;;;;12.67;9.67;;;;;14.77;100.00;101834.75;6367606;22;47028;-95
2022/03/15 04:48:20;;;;;;;;;6.33;6.33;;;;;14.81;100.00;101831.44;6367100;22;45455;-95
2022/03/15 04:50:48;;;;;;;;;11.33;9.67;;;;;14.79;100.00;101827.81;6367459;22;45478;-95
2022/03/15 04:53:17;;;;;;;;;14.00;10.00;;;;;14.77;100.00;101826.81;6366182;22;45288;-95
2022/03/15 04:55:46;;;;;;;;;11.67;10.00;;;;;14.61;100.00;101807.66;6365675;22;47199;-95
2022/03/15 04:58:25;;;;;;;;;16.33;11.00;;;;;14.77;100.00;101814.50;6368221;22;45150;-95
2022/03/15 05:00:53;;;;;;;;;12.33;10.67;;;;;14.72;100.00;101802.84;6367107;22;45406;-95
2022/03/15 05:03:21;;;;;;;;;12.33;10.67;;;;;14.63;100.00;101804.25;6367314;22;45497;-95
2022/03/15 05:05:57;;;;;;;;;13.67;12.33;;;;;14.74;100.00;101802.06;6366876;22;47429;-95
2022/03/15 05:08:32;;;;;;;;;11.00;11.00;;;;;14.64;100.00;101803.41;6366780;22;46015;-95
2022/03/15 05:11:20;;;;;;;;;;;;;;;;;;;;;
2022/03/15 05:14:02;;;;;;;;;13.67;9.67;;;;;14.82;100.00;101809.44;6367256;22;68875;-95
2022/03/15 05:16:48;;;;;;;;;12.00;11.00;;;;;14.69;100.00;101790.38;6365473;22;46993;-95
2022/03/15 05:22:40;;;;;;;;;13.33;13.33;;;;;14.82;100.00;101797.13;6228066;22;45495;-95
2022/03/15 05:25:09;;;;;;;;;14.00;12.33;;;;;14.71;100.00;101785.19;6365510;22;45447;-94
2022/03/15 05:27:43;;;;;;;;;15.67;14.33;;;;;14.80;100.00;101797.91;6366229;22;47134;-95
2022/03/15 05:30:12;;;;;;;;;11.67;9.67;;;;;14.76;100.00;101788.94;6366975;22;45462;-94
2022/03/15 05:32:47;;;;;;;;;;;;;;;;;;;;;
2022/03/15 05:35:24;;;;;;;;;11.00;11.00;;;;;14.72;100.00;101790.53;6367329;22;68944;-95
2022/03/15 05:37:51;;;;;;;;;13.00;12.33;;;;;14.81;100.00;101797.06;6366071;22;47111;-94
2022/03/15 05:40:17;;;;;;;;;14.00;11.33;;;;;14.89;100.00;101808.94;6366902;22;45619;-93
2022/03/15 05:42:42;;;;;;;;;17.67;14.00;;;;;14.82;100.00;101789.19;6365689;22;45533;-93
2022/03/15 05:45:08;;;;;;;;;15.33;14.67;;;;;14.80;100.00;101776.75;6365490;22;45397;-94
2022/03/15 05:47:34;;;;;;;;;13.67;13.67;;;;;14.82;100.00;101783.91;6365612;22;47008;-93
2022/03/15 05:50:00;;;;;;;;;18.33;18.00;;;;;14.81;100.00;101791.78;6365114;22;45399;-86
2022/03/15 05:52:26;;;;;;;;;13.67;11.00;;;;;14.82;100.00;101786.56;6365861;22;45300;-84
2022/03/15 05:54:51;;;;;;;;;17.67;15.33;;;;;14.83;100.00;101782.19;6366040;22;45216;-83
2022/03/15 05:57:16;;;;;;;;;17.00;14.33;;;;;14.88;100.00;101782.41;6365644;22;45278;-85
2022/03/15 05:59:42;;;;;;;;;15.33;14.33;;;;;14.91;100.00;101798.41;6365041;22;45329;-84
2022/03/15 06:02:07;;;;;;;;;17.33;14.33;;;;;14.91;100.00;101795.78;6365959;22;45281;-84
2022/03/15 06:04:33;;;;;;;;;18.33;15.67;;;;;14.87;100.00;101788.56;6363182;22;45277;-86
2022/03/15 06:06:58;;;;;;;;;15.33;14.67;;;;;14.88;100.00;101787.69;6364393;22;45551;-85
2022/03/15 06:09:25;;;;;;;;;16.33;14.00;;;;;14.94;100.00;101790.63;6363095;22;45348;-84
2022/03/15 06:11:51;;;;;;;;;16.67;12.00;;;;;14.90;100.00;101788.66;6364906;22;45794;-84
2022/03/15 06:14:18;;;;;;;;;15.33;13.00;;;;;14.89;100.00;101789.53;6364827;22;45614;-84
2022/03/15 06:16:43;;;;;;;;;14.00;12.33;;;;;14.86;100.00;101795.56;6364590;22;45505;-85
2022/03/15 06:19:08;;;;;;;;;17.67;15.00;;;;;14.89;100.00;101790.44;6364914;22;45240;-85
2022/03/15 06:21:34;;;;;;;;;17.33;15.00;;;;;14.91;100.00;101790.47;6365236;22;45376;-85
2022/03/15 06:24:00;;;;;;;;;14.33;14.00;;;;;14.90;100.00;101789.56;6363769;22;45271;-87
2022/03/15 06:26:26;;;;;;;;;19.00;17.33;;;;;14.96;100.00;101792.50;6364990;22;46557;-86
2022/03/15 06:28:51;;;;;;;;;19.00;16.67;;;;;15.00;100.00;101790.88;6365174;22;45219;-89
2022/03/15 06:31:16;;;;;;;;;14.33;12.67;;;;;14.99;100.00;101781.16;6367666;22;45391;-90
2022/03/15 06:33:42;;;;;;;;;19.00;17.67;;;;;15.01;100.00;101791.78;6365014;22;51238;-90
2022/03/15 06:36:11;;;;;;;;;20.00;17.33;;;;;15.02;100.00;101783.03;6362687;22;45341;-89
2022/03/15 06:38:41;;;;;;;;;14.50;12.50;;;;;15.05;100.00;101777.88;6364063;22;45354;-89
2022/03/15 06:41:10;;;;;;;;;20.33;18.00;;;;;15.12;100.00;101781.69;6365551;22;45311;-89
2022/03/15 06:43:36;;;;;;;;;21.00;17.00;;;;;15.06;100.00;101779.69;6362102;22;45398;-89
2022/03/15 06:46:01;;;;;;;;;18.00;15.67;;;;;15.08;100.00;101775.34;6364279;22;46811;-89
2022/03/15 06:48:27;;;;;;;;;15.33;14.33;;;;;15.12;100.00;101779.03;6365585;22;45354;-88
2022/03/15 06:50:53;;;;;;;;;17.67;16.33;;;;;15.13;100.00;101770.25;6365769;22;45624;-88
2022/03/15 06:53:19;;;;;;;;;22.75;21.75;;;;;15.15;100.00;101772.13;6362875;22;45251;-89
2022/03/15 06:55:44;;;;;;;;;54.25;42.50;;;;;15.15;100.00;101773.91;6365391;22;45970;-88
2022/03/15 06:58:10;;;;;;;;;29.00;28.75;;;;;15.16;100.00;101770.41;6364860;22;45410;-88
2022/03/15 07:00:35;;;;;;;;;23.75;21.25;;;;;15.16;100.00;101763.38;6363745;22;45515;-88
2022/03/15 07:03:01;;;;;;;;;17.00;16.67;;;;;15.21;100.00;101767.94;6363666;22;45276;-89
2022/03/15 07:05:26;;;;;;;;;20.33;18.00;;;;;15.20;100.00;101759.13;6362767;22;48214;-88
2022/03/15 07:07:52;;;;;;;;;18.67;15.67;;;;;15.25;100.00;101767.25;6365073;22;45307;-88
2022/03/15 07:10:19;;;;;;;;;22.75;21.00;;;;;15.21;100.00;101765.28;6366329;22;45196;-88
2022/03/15 07:12:45;;;;;;;;;14.33;10.67;;;;;15.22;100.00;101775.97;6363494;22;45302;-88
2022/03/15 07:15:11;;;;;;;;;20.33;17.67;;;;;15.22;100.00;101768.03;6365390;22;46274;-88
2022/03/15 07:17:36;;;;;;;;;19.67;15.33;;;;;15.24;100.00;101773.38;6363824;22;45706;-88
2022/03/15 07:20:04;;;;;;;;;17.00;14.67;;;;;15.24;100.00;101770.72;6387502;22;44750;-88
2022/03/15 07:22:29;;;;;;;;;23.33;18.33;;;;;15.23;100.00;101769.81;6390553;22;44731;-88
2022/03/15 07:24:55;;;;;;;;;15.00;15.00;;;;;15.28;100.00;101784.13;6369502;22;55352;-87
2022/03/15 07:27:21;;;;;;;;;20.00;18.00;;;;;15.30;100.00;101771.00;6366480;22;45289;-88
2022/03/15 07:29:47;;;;;;;;;20.33;18.33;;;;;15.34;100.00;101775.56;6365189;22;45252;-89
2022/03/15 07:32:12;;;;;;;;;20.00;19.00;;;;;15.29;100.00;101778.03;6365927;22;45328;-87
2022/03/15 07:34:38;;;;;;;;;30.25;24.75;;;;;15.30;100.00;101778.94;6365381;22;45400;-88
2022/03/15 07:37:04;;;;;;;;;27.75;24.25;;;;;15.29;100.00;101783.31;6361917;22;45484;-89
2022/03/15 07:39:29;;;;;;;;;26.00;23.00;;;;;15.28;100.00;101772.69;6365379;22;45358;-89
2022/03/15 07:41:55;;;;;;;;;25.75;22.75;;;;;15.25;100.00;101767.25;6363862;22;45742;-88
2022/03/15 07:44:21;;;;;;;;;22.25;22.25;;;;;15.27;100.00;101768.22;6361923;22;48230;-88
2022/03/15 07:46:50;;;;;;;;;32.50;24.25;;;;;15.28;100.00;101759.47;6364591;22;45670;-88
2022/03/15 07:49:20;;;;;;;;;26.00;23.00;;;;;15.33;100.00;101754.34;6362553;22;45371;-89
2022/03/15 07:51:47;;;;;;;;;24.75;24.75;;;;;15.39;100.00;101760.78;6363724;22;45470;-89
2022/03/15 07:54:13;;;;;;;;;27.67;26.00;;;;;15.40;100.00;101752.03;6364975;22;46091;-89
2022/03/15 07:56:39;;;;;;;;;23.67;21.67;;;;;15.42;100.00;101730.91;6363796;22;45396;-89
2022/03/15 07:59:04;;;;;;;;;26.50;24.00;;;;;15.47;100.00;101741.69;6364420;22;45564;-89
2022/03/15 08:01:30;;;;;;;;;28.75;22.50;;;;;15.55;100.00;101747.28;6362546;22;45293;-90
2022/03/15 08:03:56;;;;;;;;;21.75;20.25;;;;;15.54;100.00;101751.66;6361320;22;48173;-89
2022/03/15 08:06:21;;;;;;;;;21.00;21.00;;;;;15.58;100.00;101740.41;6364581;22;45391;-89
2022/03/15 08:08:48;;;;;;;;;24.00;21.25;;;;;15.61;100.00;101743.16;6362520;22;45449;-89
2022/03/15 08:11:14;;;;;;;;;24.00;22.67;;;;;15.61;100.00;101748.47;6363961;22;45359;-89
2022/03/15 08:13:39;;;;;;;;;21.00;20.00;;;;;15.59;100.00;101741.31;6363106;22;48598;-89
2022/03/15 08:16:05;;;;;;;;;26.00;24.00;;;;;15.59;100.00;101743.94;6364990;22;45370;-90
2022/03/15 08:18:31;;;;;;;;;23.75;20.75;;;;;15.56;100.00;101735.88;6365778;22;45338;-89
2022/03/15 08:20:58;;;;;;;;;24.75;23.00;;;;;15.55;100.00;101737.63;6363699;22;45412;-89
2022/03/15 08:23:24;;;;;;;;;24.33;20.67;;;;;15.56;100.00;101735.88;6365769;22;45859;-89
2022/03/15 08:25:49;;;;;;;;;25.67;23.00;;;;;15.59;100.00;101733.38;6361894;22;45417;-90
2022/03/15 08:28:15;;;;;;;;;26.67;24.33;;;;;15.61;100.00;101739.63;6358203;22;45317;-91
2022/03/15 08:30:40;;;;;;;;;31.00;25.00;;;;;15.57;100.00;101746.50;6361793;22;45240;-91
2022/03/15 08:33:06;;;;;;;;;25.00;21.00;;;;;15.61;100.00;101747.56;6362835;22;48690;-90
2022/03/15 08:35:31;;;;;;;;;32.50;23.25;;;;;15.60;100.00;101741.34;6364334;22;45634;-89
2022/03/15 08:37:57;;;;;;;;;29.25;28.75;;;;;15.65;100.00;101744.19;6364966;22;45237;-89
2022/03/15 08:40:23;;;;;;;;;28.75;25.75;;;;;15.68;100.00;101743.41;6361607;22;45454;-87
2022/03/15 08:42:48;;;;;;;;;32.75;31.25;;;;;15.66;100.00;101742.44;6363123;22;45196;-89
2022/03/15 08:45:14;;;;;;;;;35.00;30.25;;;;;15.66;100.00;101732.75;6361013;22;45502;-91
2022/03/15 08:47:40;;;;;;;;;35.75;28.25;;;;;15.63;100.00;101745.88;6364463;22;45413;-90
2022/03/15 08:50:07;;;;;;;;;31.75;28.75;;;;;15.71;100.00;101756.75;6371036;22;45399;-89
2022/03/15 08:52:33;;;;;;;;;24.25;21.75;;;;;15.64;100.00;101748.56;6361279;22;46353;-89
2022/03/15 08:54:58;;;;;;;;;27.25;25.00;;;;;15.69;100.00;101751.41;6364858;22;45326;-91
2022/03/15 08:57:24;;;;;;;;;25.50;23.25;;;;;15.70;100.00;101750.56;6366429;22;45224;-91
2022/03/15 08:59:49;;;;;;;;;26.50;26.50;;;;;15.75;100.00;101742.81;6365776;22;45350;-91
2022/03/15 09:02:17;;;;;;;;;32.50;26.75;;;;;15.77;100.00;101746.41;6364391;22;47248;-90
2022/03/15 09:04:43;;;;;;;;;31.75;25.00;;;;;15.75;100.00;101761.31;6363450;22;45732;-92
2022/03/15 09:07:09;;;;;;;;;32.50;28.25;;;;;15.70;100.00;101782.31;6364749;22;45215;-89
2022/03/15 09:09:34;;;;;;;;;26.00;24.25;;;;;15.70;100.00;101765.53;6366304;22;45657;-91
2022/03/15 09:11:59;;;;;;;;;28.00;25.25;;;;;15.71;100.00;101762.97;6366706;22;49297;-89
2022/03/15 09:14:24;;;;;;;;;24.75;24.50;;;;;15.68;100.00;101765.47;6367079;22;45421;-92
2022/03/15 09:16:50;;;;;;;;;32.50;27.50;;;;;15.68;100.00;101762.84;6365886;22;45613;-92
2022/03/15 09:19:16;;;;;;;;;28.25;25.25;;;;;15.74;100.00;101765.75;6363444;22;45770;-95
2022/03/15 09:21:43;;;;;;;;;26.25;24.50;;;;;15.68;100.00;101759.28;6364119;22;46427;-91
2022/03/15 09:24:10;;;;;;;;;27.00;26.00;;;;;15.75;100.00;101745.44;6363082;22;46304;-92
2022/03/15 09:26:36;;;;;;;;;29.25;24.25;;;;;15.71;100.00;101751.47;6363734;22;45367;-93
2022/03/15 09:29:01;;;;;;;;;30.75;30.00;;;;;15.70;100.00;101750.56;6362502;22;45252;-92
2022/03/15 09:31:27;;;;;;;;;31.25;28.00;;;;;15.71;100.00;101749.72;6363761;22;47456;-90
2022/03/15 09:33:52;;;;;;;;;37.50;32.75;;;;;15.78;100.00;101740.28;6364527;22;45233;-90
2022/03/15 09:36:18;;;;;;;;;33.50;29.75;;;;;15.90;100.00;101729.25;6362931;22;45391;-94
2022/03/15 09:38:44;;;;;;;;;34.75;32.25;;;;;15.98;100.00;101730.47;6362118;22;45499;-88
2022/03/15 09:41:09;;;;;;;;;38.75;32.00;;;;;16.04;100.00;101720.97;6361983;22;46640;-89
2022/03/15 09:43:40;;;;;;;;;33.25;30.00;;;;;16.21;100.00;101731.34;6364016;22;45314;-89
2022/03/15 09:46:08;;;;;;;;;35.25;33.25;;;;;16.25;100.00;101739.47;6361425;22;45414;-91
2022/03/15 09:48:35;;;;;;;;;37.75;32.75;;;;;16.28;100.00;101736.94;6363631;22;45269;-92
2022/03/15 09:51:04;;;;;;;;;36.50;31.00;;;;;16.40;100.00;101728.53;6361935;22;46569;-91
2022/03/15 09:53:32;;;;;;;;;35.50;31.50;;;;;16.42;100.00;101726.84;6364219;22;45620;-91
2022/03/15 09:55:57;;;;;;;;;34.25;30.50;;;;;16.41;100.00;101721.50;6365074;22;45200;-93
2022/03/15 09:58:23;;;;;;;;;34.75;32.50;;;;;16.48;100.00;101712.00;6364739;22;45256;-91
2022/03/15 10:00:51;;;;;;;;;35.25;30.75;;;;;16.62;100.00;101715.16;6361041;22;47208;-91
2022/03/15 10:03:17;;;;;;;;;30.50;26.00;;;;;16.58;100.00;101719.44;6361217;22;45449;-91
2022/03/15 10:05:44;;;;;;;;;34.75;29.50;;;;;16.56;100.00;101733.50;6363874;22;45374;-89
2022/03/15 10:08:10;;;;;;;;;30.75;29.25;;;;;16.49;100.00;101725.31;6361507;22;45451;-88
2022/03/15 10:10:35;;;;;;;;;33.00;28.50;;;;;16.51;100.00;101731.59;6362778;22;45363;-89
2022/03/15 10:13:02;;;;;;;;;36.00;33.75;;;;;16.50;100.00;101728.84;6362669;22;45236;-90
2022/03/15 10:15:27;;;;;;;;;34.50;29.00;;;;;16.45;100.00;101725.13;6361694;22;45237;-90
2022/03/15 10:18:04;;;;;;;;;35.50;30.25;;;;;16.46;100.00;101725.22;6362101;22;45419;-91
2022/03/15 10:20:37;;;;;;;;;36.75;30.50;;;;;16.42;100.00;101721.53;6363681;22;45712;-90
2022/03/15 10:23:03;;;;;;;;;34.75;31.75;;;;;16.38;100.00;101718.72;6362276;22;45506;-90
2022/03/15 10:25:31;;;;;;;;;40.00;34.25;;;;;16.43;100.00;101722.44;6362782;22;45456;-90
2022/03/15 10:28:01;;;;;;;;;32.75;32.75;;;;;16.40;100.00;101722.31;6360642;22;45632;-89
2022/03/15 10:30:29;;;;;;;;;33.75;29.75;;;;;16.38;100.00;101724.94;6361638;22;47067;-89
2022/03/15 10:32:55;;;;;;;;;36.75;30.50;;;;;16.31;100.00;101710.53;6362476;22;45314;-90
2022/03/15 10:35:22;;;;;;;;;37.50;31.75;;;;;16.32;100.00;101708.78;6362768;22;45435;-90
2022/03/15 10:37:50;;;;;;;;;40.50;30.75;;;;;16.38;100.00;101705.47;6361721;22;45285;-90
2022/03/15 10:40:16;;;;;;;;;36.25;32.25;;;;;16.37;100.00;101708.97;6364700;22;46313;-88
2022/03/15 10:42:44;;;;;;;;;36.50;29.75;;;;;16.42;100.00;101710.03;6359939;22;45459;-89
2022/03/15 10:45:20;;;;;;;;;42.00;36.50;;;;;16.48;100.00;101702.31;6363005;22;45726;-89
2022/03/15 10:47:54;;;;;;;;;39.00;32.75;;;;;16.49;100.00;101695.28;6371552;22;45282;-87
2022/03/15 10:50:21;;;;;;;;;36.75;31.50;;;;;16.43;100.00;101690.66;6362516;22;47248;-88
2022/03/15 10:52:48;;;;;;;;;39.75;30.75;;;;;16.48;100.00;101693.47;6363911;22;45454;-87
2022/03/15 10:55:16;;;;;;;;;31.75;29.00;;;;;16.57;100.00;101700.84;6363350;22;45452;-87
2022/03/15 10:57:49;;;;;;;;;28.75;26.50;;;;;16.57;100.00;101700.84;6363451;22;45228;-87
2022/03/15 11:00:16;;;;;;;;;39.00;29.75;;;;;16.47;100.00;101702.25;6361359;22;47598;-88
2022/03/15 11:02:46;;;;;;;;;41.00;36.25;;;;;16.47;100.00;101695.19;6369317;22;45171;-87
2022/03/15 11:05:11;;;;;;;;;33.75;31.00;;;;;16.44;100.00;101697.72;6367593;22;45280;-87
2022/03/15 11:07:38;;;;;;;;;30.75;29.50;;;;;16.48;100.00;101686.41;6370329;22;45289;-87
2022/03/15 11:10:11;;;;;;;;;28.50;26.75;;;;;16.61;100.00;101692.16;6365650;22;47440;-86
2022/03/15 11:12:36;;;;;;;;;34.00;32.25;;;;;16.50;100.00;101689.09;6365051;22;45232;-90